Time;durP1;ratioP1;P1;durP2;ratioP2;P2;SDS_P1;SDS_P2;PMS_P1;PMS_P2;Temp;Humidity;BMP_temperature;BMP_pressure;BME280_temperature;BME280_humidity;BME280_pressure;Samples;Min_cycle;Max_cycle;Signal;HPM_P1;HPM_P2
2023/07/13 00:00:00;;;;;;;19.13;4.63;;;;;;;17.53;100.00;101187.13;5055314;28;20033;-52
2023/07/13 00:02:26;;;;;;;18.00;4.53;;;;;;;17.70;100.00;101242.13;5055282;28;20091;-51
2023/07/13 00:04:52;;;;;;;14.25;3.80;;;;;;;17.72;100.00;101232.25;5037349;28;20316;-52
2023/07/13 00:07:19;;;;;;;15.18;4.28;;;;;;;17.42;100.00;101168.25;5037221;28;20472;-51
2023/07/13 00:09:46;;;;;;;18.25;4.38;;;;;;;17.41;100.00;101159.41;5055049;28;20021;-55
2023/07/13 00:12:41;;;;;;;11.95;4.10;;;;;;;17.79;100.00;101233.63;5055206;28;20036;-48
2023/07/13 00:15:16;;;;;;;12.98;4.03;;;;;;;17.86;100.00;101230.53;5045968;28;20103;-51
2023/07/13 00:17:43;;;;;;;15.60;4.38;;;;;;;17.89;100.00;101238.34;5053989;28;20056;-56
2023/07/13 00:20:08;;;;;;;15.63;4.55;;;;;;;17.51;100.00;101148.25;5037402;28;20112;-52
2023/07/13 00:22:34;;;;;;;12.55;4.22;;;;;;;17.60;100.00;101156.59;5054974;28;20179;-55
2023/07/13 00:24:59;;;;;;;10.73;3.45;;;;;;;17.99;100.00;101233.38;5055013;28;20037;-50
2023/07/13 00:27:29;;;;;;;11.88;4.63;;;;;;;17.92;100.00;101230.19;5055209;28;20083;-55
2023/07/13 00:29:55;;;;;;;12.13;3.80;;;;;;;17.96;100.00;101234.41;5054788;28;20467;-51
2023/07/13 00:32:20;;;;;;;13.82;3.35;;;;;;;18.02;100.00;101241.19;5054680;28;20279;-52
2023/07/13 00:34:46;;;;;;;12.85;3.55;;;;;;;17.98;100.00;101251.16;5055070;28;20071;-49
2023/07/13 00:37:11;;;;;;;15.10;3.65;;;;;;;17.92;100.00;101248.81;5054468;28;20147;-55
2023/07/13 00:39:37;;;;;;;15.80;4.07;;;;;;;17.47;100.00;101165.31;5054479;28;20392;-50
2023/07/13 00:42:03;;;;;;;16.25;4.32;;;;;;;17.72;100.00;101209.16;5054595;28;20033;-50
2023/07/13 00:44:29;;;;;;;18.08;4.35;;;;;;;17.54;100.00;101180.00;5054387;28;20112;-51
2023/07/13 00:46:55;;;;;;;12.85;3.50;;;;;;;17.90;100.00;101236.53;5054365;28;20145;-51
2023/07/13 00:49:23;;;;;;;12.80;3.45;;;;;;;17.45;100.00;101173.41;5054275;28;20033;-52
2023/07/13 00:51:52;;;;;;;10.52;2.97;;;;;;;17.73;100.00;101213.53;5036769;28;20033;-50
2023/07/13 00:54:26;;;;;;;12.55;3.22;;;;;;;17.31;100.00;101157.31;5036615;28;20071;-53
2023/07/13 00:56:53;;;;;;;14.52;3.70;;;;;;;17.72;100.00;101249.09;5036744;28;20033;-49
2023/07/13 00:59:20;;;;;;;15.25;3.70;;;;;;;17.32;100.00;101197.16;5036361;28;20091;-52
2023/07/13 01:01:46;;;;;;;11.23;3.60;;;;;;;17.47;100.00;101243.38;5036237;28;20041;-50
2023/07/13 01:04:11;;;;;;;10.10;2.75;;;;;;;17.02;100.00;101174.84;5036493;28;20036;-50
2023/07/13 01:06:37;;;;;;;14.30;3.60;;;;;;;17.36;100.00;101240.44;5036316;28;20029;-48
2023/07/13 01:09:04;;;;;;;8.98;2.75;;;;;;;17.33;100.00;101237.94;5053986;28;20031;-58
2023/07/13 01:11:30;;;;;;;11.75;2.80;;;;;;;17.28;100.00;101237.28;5054224;28;20045;-49
2023/07/13 01:13:55;;;;;;;10.95;2.78;;;;;;;17.23;100.00;101250.00;5036127;28;20035;-53
2023/07/13 01:16:35;;;;;;;8.27;2.47;;;;;;;17.08;100.00;101225.06;5053775;28;20053;-53
2023/07/13 01:19:02;;;;;;;10.13;3.20;;;;;;;16.85;100.00;101189.06;5019676;28;20041;-50
2023/07/13 01:21:28;;;;;;;6.57;2.63;;;;;;;17.03;100.00;101227.13;5036051;28;20029;-55
2023/07/13 01:23:54;;;;;;;11.63;3.05;;;;;;;17.07;100.00;101243.78;5054044;28;20064;-52
2023/07/13 01:26:19;;;;;;;14.10;2.97;;;;;;;17.04;100.00;101243.94;5036020;28;20492;-56
2023/07/13 01:28:44;;;;;;;11.00;2.80;;;;;;;17.05;100.00;101254.50;5053448;28;20516;-52
2023/07/13 01:31:10;;;;;;;10.18;2.60;;;;;;;17.01;100.00;101252.94;5053729;28;20423;-53
2023/07/13 01:33:39;;;;;;;6.13;2.38;;;;;;;16.46;100.00;101167.16;5035838;28;20037;-51
2023/07/13 01:36:05;;;;;;;10.88;2.40;;;;;;;16.70;100.00;101220.91;5035753;28;20037;-49
2023/07/13 01:38:30;;;;;;;11.40;2.92;;;;;;;16.83;100.00;101257.41;5053567;28;20048;-53
2023/07/13 01:40:56;;;;;;;9.45;2.22;;;;;;;16.45;100.00;101192.03;5053372;28;20488;-54
2023/07/13 01:43:21;;;;;;;6.60;1.95;;;;;;;16.79;100.00;101254.97;5053512;28;20036;-51
2023/07/13 01:45:46;;;;;;;5.45;1.23;;;;;;;16.72;100.00;101257.09;5053609;28;20063;-49
2023/07/13 01:48:12;;;;;;;4.90;1.80;;;;;;;16.67;100.00;101263.56;5053142;28;20033;-53
2023/07/13 01:50:38;;;;;;;7.03;2.20;;;;;;;16.61;100.00;101267.41;5035518;28;20044;-49
2023/07/13 01:53:03;;;;;;;7.68;2.13;;;;;;;16.36;100.00;101227.03;5053274;28;20033;-47
2023/07/13 01:55:29;;;;;;;6.38;1.35;;;;;;;16.56;100.00;101261.47;5053196;28;20037;-54
2023/07/13 01:57:55;;;;;;;5.18;1.45;;;;;;;16.56;100.00;101273.91;5035279;28;20538;-50
2023/07/13 02:00:21;;;;;;;6.47;1.38;;;;;;;16.10;100.00;101193.81;5052843;28;20472;-52
2023/07/13 02:02:46;;;;;;;4.60;1.80;;;;;;;16.44;100.00;101251.41;5053099;28;20043;-50
2023/07/13 02:05:12;;;;;;;8.75;1.73;;;;;;;16.48;100.00;101274.25;5053112;28;20040;-48
2023/07/13 02:07:38;;;;;;;6.20;1.85;;;;;;;16.42;100.00;101281.66;5035157;28;20029;-50
2023/07/13 02:10:05;;;;;;;6.32;1.88;;;;;;;16.38;100.00;101270.31;5052900;28;20057;-52
2023/07/13 02:12:30;;;;;;;7.30;2.10;;;;;;;16.34;100.00;101269.59;5035098;28;20025;-52
2023/07/13 02:14:56;;;;;;;3.78;1.60;;;;;;;15.99;100.00;101219.19;5052948;28;20041;-49
2023/07/13 02:17:21;;;;;;;6.43;1.70;;;;;;;16.17;100.00;101252.81;5052650;28;20079;-51
2023/07/13 02:19:47;;;;;;;6.32;2.25;;;;;;;16.21;100.00;101275.59;5052724;28;20029;-54
2023/07/13 02:22:12;;;;;;;3.92;1.77;;;;;;;15.74;100.00;101193.81;5052866;28;20032;-51
2023/07/13 02:24:38;;;;;;;8.98;1.75;;;;;;;16.12;100.00;101262.78;5052599;28;20033;-49
2023/07/13 02:27:03;;;;;;;3.80;1.48;;;;;;;15.70;100.00;101194.03;5052591;28;20036;-49
2023/07/13 02:29:29;;;;;;;7.95;1.52;;;;;;;15.74;100.00;101212.38;5035052;28;20048;-50
2023/07/13 02:31:54;;;;;;;5.53;1.80;;;;;;;16.02;100.00;101264.16;5052395;28;20033;-50
2023/07/13 02:34:20;;;;;;;8.40;2.45;;;;;;;15.98;100.00;101260.78;5052584;28;20033;-52
2023/07/13 02:36:45;;;;;;;9.75;1.70;;;;;;;15.99;100.00;101264.31;5034719;28;20029;-54
2023/07/13 02:39:12;;;;;;;8.43;1.77;;;;;;;15.95;100.00;101258.28;5052180;28;20043;-48
2023/07/13 02:41:37;;;;;;;10.23;2.60;;;;;;;15.56;100.00;101209.72;5033890;28;20480;-55
2023/07/13 02:44:03;;;;;;;4.35;1.73;;;;;;;15.86;100.00;101255.19;5052376;28;20067;-53
2023/07/13 02:46:30;;;;;;;7.53;1.67;;;;;;;15.95;100.00;101268.03;5052330;28;20024;-54
2023/07/13 02:48:55;;;;;;;11.40;2.10;;;;;;;15.96;100.00;101259.16;5052541;28;20044;-56
2023/07/13 02:51:21;;;;;;;7.18;1.83;;;;;;;15.95;100.00;101263.59;5052371;28;20033;-52
2023/07/13 02:53:46;;;;;;;7.10;1.88;;;;;;;15.95;100.00;101279.53;5052293;28;20032;-55
2023/07/13 02:56:11;;;;;;;5.65;1.50;;;;;;;15.56;100.00;101215.03;5052092;28;20037;-53
2023/07/13 02:58:38;;;;;;;7.13;1.80;;;;;;;15.65;100.00;101228.75;5052309;28;20033;-52
2023/07/13 03:01:07;;;;;;;9.15;2.38;;;;;;;15.49;100.00;101203.00;5051258;28;20476;-52
2023/07/13 03:03:32;;;;;;;10.25;2.15;;;;;;;15.42;100.00;101197.09;5051996;28;20029;-55
2023/07/13 03:05:59;;;;;;;9.18;2.08;;;;;;;15.39;100.00;101199.00;5050760;28;20396;-48
2023/07/13 03:08:25;;;;;;;7.05;2.10;;;;;;;15.80;100.00;101272.28;5052173;28;20040;-54
2023/07/13 03:11:02;;;;;;;12.50;1.88;;;;;;;15.34;100.00;101193.94;5034359;28;20041;-49
2023/07/13 03:13:27;;;;;;;5.40;2.03;;;;;;;15.79;100.00;101275.00;5052038;28;20029;-49
2023/07/13 03:15:52;;;;;;;8.75;2.20;;;;;;;15.83;100.00;101292.50;5052076;28;20055;-54
2023/07/13 03:18:18;;;;;;;4.40;1.73;;;;;;;15.78;100.00;101274.16;5052052;28;20488;-54
2023/07/13 03:20:43;;;;;;;11.15;2.65;;;;;;;15.37;100.00;101198.22;5051798;28;20033;-54
2023/07/13 03:23:09;;;;;;;14.07;2.40;;;;;;;15.33;100.00;101191.34;5051910;28;20037;-49
2023/07/13 03:25:34;;;;;;;8.30;2.63;;;;;;;15.70;100.00;101257.72;5033987;28;20037;-54
2023/07/13 03:27:59;;;;;;;9.02;3.28;;;;;;;15.47;100.00;101234.91;5052001;28;20381;-51
2023/07/13 03:30:25;;;;;;;11.68;3.30;;;;;;;15.31;100.00;101212.63;5033917;28;20434;-48
2023/07/13 03:32:50;;;;;;;19.38;3.53;;;;;;;15.66;100.00;101269.41;5051920;28;20044;-50
2023/07/13 03:35:16;;;;;;;11.50;3.15;;;;;;;14.89;100.00;101138.56;5051855;28;20037;-51
2023/07/13 03:37:42;;;;;;;10.68;3.65;;;;;;;15.67;100.00;101271.16;5051900;28;20119;-54
2023/07/13 03:40:09;;;;;;;10.73;3.03;;;;;;;15.52;100.00;101245.31;5051884;28;20087;-54
2023/07/13 03:42:34;;;;;;;10.73;3.45;;;;;;;15.27;100.00;101203.09;5051849;28;20041;-54
2023/07/13 03:45:00;;;;;;;15.40;3.70;;;;;;;15.71;100.00;101278.00;5051744;28;20037;-49
2023/07/13 03:47:25;;;;;;;9.35;3.13;;;;;;;15.72;100.00;101283.25;5051889;28;20086;-49
2023/07/13 03:49:51;;;;;;;15.00;3.85;;;;;;;15.67;100.00;101252.56;5051927;28;20036;-53
2023/07/13 03:52:16;;;;;;;14.55;3.75;;;;;;;15.37;100.00;101201.75;5052297;28;20029;-51
2023/07/13 03:54:41;;;;;;;16.35;3.70;;;;;;;15.38;100.00;101187.53;5055488;28;20037;-50
2023/07/13 03:57:08;;;;;;;10.57;3.47;;;;;;;15.89;100.00;101261.22;5055492;28;20487;-51
2023/07/13 03:59:33;;;;;;;13.18;3.50;;;;;;;15.95;100.00;101268.03;5055664;28;20060;-54
2023/07/13 04:01:59;;;;;;;14.57;3.95;;;;;;;15.96;100.00;101273.28;5054171;28;20071;-51
2023/07/13 04:04:24;;;;;;;7.90;3.97;;;;;;;16.04;100.00;101281.75;5055415;28;20033;-53
2023/07/13 04:06:49;;;;;;;9.40;3.75;;;;;;;15.63;100.00;101206.72;5055310;28;20044;-51
2023/07/13 04:09:14;;;;;;;10.75;3.28;;;;;;;16.14;100.00;101288.31;5054333;28;20041;-49
2023/07/13 04:11:40;;;;;;;8.00;2.88;;;;;;;16.14;100.00;101284.81;5055372;28;20037;-49
2023/07/13 04:14:05;;;;;;;11.82;3.50;;;;;;;16.18;100.00;101287.25;5055239;28;20047;-56
2023/07/13 04:16:31;;;;;;;12.55;3.83;;;;;;;16.11;100.00;101277.00;5055302;28;20064;-53
2023/07/13 04:18:59;;;;;;;10.35;3.25;;;;;;;16.20;100.00;101298.66;5055235;28;20107;-54
2023/07/13 04:21:29;;;;;;;11.73;3.97;;;;;;;16.06;100.00;101255.09;5054985;28;20032;-53
2023/07/13 04:23:55;;;;;;;11.60;3.20;;;;;;;16.37;100.00;101291.66;5054466;28;20036;-51
2023/07/13 04:26:20;;;;;;;12.55;4.00;;;;;;;16.47;100.00;101300.88;5054691;28;20466;-50
2023/07/13 04:28:47;;;;;;;11.65;3.40;;;;;;;16.57;100.00;101299.53;5037239;28;20032;-48
2023/07/13 04:31:12;;;;;;;16.95;3.75;;;;;;;16.61;100.00;101291.34;5054999;28;20064;-48
2023/07/13 04:33:37;;;;;;;14.60;3.75;;;;;;;16.32;100.00;101238.75;5054717;28;20060;-51
2023/07/13 04:36:03;;;;;;;13.02;4.25;;;;;;;16.77;100.00;101302.06;5054713;28;20044;-54
2023/07/13 04:38:30;;;;;;;12.10;3.60;;;;;;;16.71;100.00;101284.63;5054749;28;20029;-50
2023/07/13 04:40:58;;;;;;;13.40;3.92;;;;;;;16.73;100.00;101272.09;5054292;28;20072;-50
2023/07/13 04:43:24;;;;;;;19.83;4.35;;;;;;;16.99;100.00;101301.84;5054537;28;20068;-51
2023/07/13 04:45:50;;;;;;;15.30;3.38;;;;;;;16.64;100.00;101238.03;5054668;28;20496;-49
2023/07/13 04:48:16;;;;;;;13.85;3.92;;;;;;;16.74;100.00;101241.94;5036632;28;20090;-50
2023/07/13 04:50:42;;;;;;;13.60;4.15;;;;;;;17.17;100.00;101301.72;5054462;28;20029;-52
2023/07/13 04:53:08;;;;;;;14.88;4.28;;;;;;;17.24;100.00;101302.28;5054399;28;20087;-55
2023/07/13 04:55:33;;;;;;;9.60;3.22;;;;;;;17.34;100.00;101324.78;5054169;28;20045;-53
2023/07/13 04:57:59;;;;;;;16.13;3.30;;;;;;;17.33;100.00;101313.31;5054481;28;20061;-52
2023/07/13 05:00:25;;;;;;;9.80;3.67;;;;;;;17.08;100.00;101275.59;5036519;28;20047;-57
2023/07/13 05:02:51;;;;;;;10.07;3.47;;;;;;;17.05;100.00;101259.81;5053939;28;20073;-51
2023/07/13 05:05:16;;;;;;;7.93;2.90;;;;;;;17.14;100.00;101255.81;5054014;28;20467;-50
2023/07/13 05:07:42;;;;;;;14.23;3.55;;;;;;;17.70;100.00;101333.50;5054176;28;20469;-52
2023/07/13 05:10:08;;;;;;;11.43;3.13;;;;;;;17.77;100.00;101316.28;5036523;28;20036;-51
2023/07/13 05:12:33;;;;;;;8.35;3.10;;;;;;;18.06;100.00;101330.66;5053939;28;20036;-54
2023/07/13 05:14:58;;;;;;;11.40;3.40;;;;;;;18.19;100.00;101338.78;5054014;28;20445;-51
2023/07/13 05:17:24;;;;;;;13.43;3.72;;;;;;;18.18;100.00;101329.09;5036059;28;20045;-51
2023/07/13 05:19:49;;;;;;;8.88;3.10;;;;;;;17.97;100.00;101280.53;5052835;28;20044;-52
2023/07/13 05:22:14;;;;;;;8.50;2.58;;;;;;;18.06;100.00;101279.16;5053761;28;20052;-52
2023/07/13 05:24:40;;;;;;;10.25;3.30;;;;;;;18.43;100.00;101343.63;5052636;28;20037;-50
2023/07/13 05:27:05;;;;;;;8.65;3.17;;;;;;;18.09;100.00;101309.16;5053764;28;20400;-54
2023/07/13 05:29:30;;;;;;;6.15;2.63;;;;;;;18.28;100.00;101352.47;5035751;28;20033;-53
2023/07/13 05:31:56;;;;;;;7.43;2.97;;;;;;;18.18;100.00;101355.75;5053441;28;20048;-56
2023/07/13 05:34:21;;;;;;;9.40;2.45;;;;;;;17.63;100.00;101276.22;5053628;28;20025;-55
2023/07/13 05:36:48;;;;;;;9.70;2.58;;;;;;;17.65;100.00;101284.13;5053414;28;20029;-53
2023/07/13 05:39:13;;;;;;;7.45;2.70;;;;;;;18.12;100.00;101356.94;5035709;28;20043;-49
2023/07/13 05:41:39;;;;;;;7.10;2.78;;;;;;;17.77;100.00;101296.78;5053526;28;20123;-51
2023/07/13 05:44:04;;;;;;;11.60;2.38;;;;;;;18.16;100.00;101357.63;5019241;28;20463;-54
2023/07/13 05:46:30;;;;;;;7.65;2.38;;;;;;;17.95;100.00;101299.25;5053596;28;20021;-53
2023/07/13 05:48:56;;;;;;;8.75;3.00;;;;;;;18.25;100.00;101327.78;5052165;28;20473;-50
2023/07/13 05:51:21;;;;;;;8.65;2.38;;;;;;;18.78;100.00;101381.63;5053283;28;20033;-50
2023/07/13 05:53:46;;;;;;;8.50;2.40;;;;;;;18.78;100.00;101362.09;5053195;28;20135;-51
2023/07/13 05:56:12;;;;;;;5.82;2.42;;;;;;;18.67;100.00;101319.19;5053332;28;20561;-49
2023/07/13 05:58:37;;;;;;;4.10;2.15;;;;;;;19.02;100.00;101393.53;5053132;28;20082;-54
2023/07/13 06:01:10;;;;;;;6.63;2.75;;;;;;;19.04;100.00;101396.97;5051884;28;20593;-52
2023/07/13 06:03:37;;;;;;;5.95;2.47;;;;;;;18.91;100.00;101387.13;5052585;28;20028;-52
2023/07/13 06:06:04;;;;;;;6.88;2.30;;;;;;;18.56;100.00;101332.28;5035762;28;20045;-55
2023/07/13 06:08:29;;;;;;;7.40;3.05;;;;;;;18.63;100.00;101363.84;5035395;28;20033;-53
2023/07/13 06:10:54;;;;;;;6.78;2.20;;;;;;;18.44;100.00;101337.34;5052975;28;20037;-52
2023/07/13 06:13:20;;;;;;;8.50;2.40;;;;;;;18.86;100.00;101410.50;5052877;28;20432;-52
2023/07/13 06:15:49;;;;;;;4.95;1.90;;;;;;;18.89;100.00;101397.84;5034170;28;20087;-54
2023/07/13 06:18:15;;;;;;;5.57;2.38;;;;;;;18.97;100.00;101395.59;5053317;28;20033;-50
2023/07/13 06:20:40;;;;;;;7.13;2.22;;;;;;;19.16;100.00;101414.06;5052508;28;20059;-55
2023/07/13 06:23:05;;;;;;;7.78;2.22;;;;;;;19.37;100.00;101412.81;5052395;28;20468;-50
2023/07/13 06:25:31;;;;;;;11.45;3.08;;;;;;;19.53;100.00;101402.06;5052589;28;20036;-51
2023/07/13 06:27:56;;;;;;;7.85;3.03;;;;;;;19.61;100.00;101421.19;5052485;28;20074;-54
2023/07/13 06:30:21;;;;;;;10.48;2.75;;;;;;;19.52;100.00;101414.59;5052225;28;20032;-56
2023/07/13 06:32:47;;;;;;;6.03;2.83;;;;;;;19.51;100.00;101425.34;5052628;28;20102;-48
2023/07/13 06:35:13;;;;;;;6.00;2.47;;;;;;;19.02;100.00;101350.84;5052483;28;20186;-53
2023/07/13 06:37:38;;;;;;;5.93;2.28;;;;;;;19.36;100.00;101426.22;5052800;28;20036;-52
2023/07/13 06:40:04;;;;;;;10.25;3.38;;;;;;;19.05;100.00;101366.69;5052447;28;20415;-52
2023/07/13 06:42:30;;;;;;;7.72;2.08;;;;;;;19.26;100.00;101366.34;5052163;28;20120;-50
2023/07/13 06:44:55;;;;;;;9.98;2.75;;;;;;;19.42;100.00;101348.47;5052556;28;20171;-54
2023/07/13 06:47:20;;;;;;;6.47;2.63;;;;;;;20.14;100.00;101432.06;5052118;28;20170;-55
2023/07/13 06:49:46;;;;;;;5.45;2.35;;;;;;;20.32;100.00;101437.25;5052217;28;20065;-54
2023/07/13 06:52:11;;;;;;;7.90;2.40;;;;;;;20.46;100.00;101443.44;5052298;28;20025;-53
2023/07/13 06:54:36;;;;;;;6.43;2.33;;;;;;;20.37;100.00;101428.00;5052271;28;20041;-53
2023/07/13 06:57:02;;;;;;;6.32;2.03;;;;;;;20.23;100.00;101429.81;5052210;28;20436;-52
2023/07/13 06:59:27;;;;;;;5.78;1.98;;;;;;;20.44;100.00;101458.72;5052253;28;20397;-50
2023/07/13 07:01:52;;;;;;;7.00;2.55;;;;;;;20.47;100.00;101469.25;5051959;28;20047;-54
2023/07/13 07:04:18;;;;;;;6.05;2.17;;;;;;;20.10;100.00;101435.91;5052105;28;20037;-52
2023/07/13 07:06:43;;;;;;;9.68;2.75;;;;;;;20.05;100.00;101451.34;5052482;28;20049;-53
2023/07/13 07:09:09;;;;;;;6.03;2.65;;;;;;;19.68;100.00;101395.81;5034315;28;20090;-54
2023/07/13 07:11:34;;;;;;;5.50;2.47;;;;;;;20.12;100.00;101471.41;5051999;28;20099;-50
2023/07/13 07:13:59;;;;;;;6.78;2.40;;;;;;;20.27;100.00;101455.41;5051719;28;20091;-53
2023/07/13 07:16:25;;;;;;;7.00;2.42;;;;;;;20.41;100.00;101466.94;5051990;28;20067;-57
2023/07/13 07:18:51;;;;;;;2.92;1.63;;;;;;;20.60;100.00;101470.19;5034229;28;20033;-55
2023/07/13 07:21:16;;;;;;;6.30;2.20;;;;;;;20.69;100.00;101468.75;5034010;28;20033;-50
2023/07/13 07:23:42;;;;;;;7.25;2.58;;;;;;;20.27;100.00;101432.22;5051878;28;20037;-53
2023/07/13 07:26:09;;;;;;;8.02;2.47;;;;;;;20.21;100.00;101452.13;5052115;28;20044;-54
2023/07/13 07:28:35;;;;;;;8.23;2.20;;;;;;;19.85;100.00;101408.97;5055975;28;20041;-52
2023/07/13 07:31:00;;;;;;;6.30;3.25;;;;;;;20.25;100.00;101470.66;5055779;28;20028;-50
2023/07/13 07:33:26;;;;;;;6.13;2.47;;;;;;;20.37;100.00;101473.47;5054511;28;20041;-49
2023/07/13 07:35:51;;;;;;;6.53;2.47;;;;;;;20.16;100.00;101432.88;5038072;28;20033;-51
2023/07/13 07:38:17;;;;;;;5.38;2.30;;;;;;;20.40;100.00;101438.47;5037837;28;20395;-57
2023/07/13 07:40:43;;;;;;;5.40;2.15;;;;;;;20.51;100.00;101422.63;5037584;28;20025;-51
2023/07/13 07:43:10;;;;;;;4.78;2.13;;;;;;;21.07;100.00;101467.06;5036565;28;20106;-56
2023/07/13 07:45:37;;;;;;;6.53;2.10;;;;;;;21.49;100.00;101502.69;5037141;28;20030;-53
2023/07/13 07:48:03;;;;;;;5.53;2.70;;;;;;;21.58;100.00;101486.88;5037584;28;20032;-48
2023/07/13 07:50:28;;;;;;;5.35;2.55;;;;;;;21.53;100.00;101513.13;5055534;28;20025;-48
2023/07/13 07:52:55;;;;;;;4.65;2.35;;;;;;;21.23;100.00;101474.97;5055232;28;20443;-56
2023/07/13 07:55:21;;;;;;;6.10;2.50;;;;;;;21.31;100.00;101511.00;5037785;28;20086;-50
2023/07/13 07:57:47;;;;;;;5.07;2.47;;;;;;;21.01;100.00;101502.28;5037612;28;20041;-50
2023/07/13 08:00:13;;;;;;;5.95;2.08;;;;;;;21.02;100.00;101508.47;5055526;28;20037;-54
2023/07/13 08:02:38;;;;;;;8.60;2.67;;;;;;;20.99;100.00;101450.66;5037489;28;20033;-52
2023/07/13 08:05:03;;;;;;;6.57;2.17;;;;;;;21.80;100.00;101457.63;5055421;28;20048;-51
2023/07/13 08:07:31;;;;;;;6.43;2.55;;;;;;;22.83;100.00;101517.34;5055894;28;20053;-51
2023/07/13 08:09:56;;;;;;;9.35;2.40;;;;;;;23.26;100.00;101516.88;5037734;28;20033;-55
2023/07/13 08:12:21;;;;;;;6.28;2.67;;;;;;;23.56;100.00;101527.16;5055125;28;20396;-56
2023/07/13 08:14:53;;;;;;;5.07;2.05;;;;;;;23.90;100.00;101518.25;5054960;28;20370;-54
2023/07/13 08:17:20;;;;;;;4.75;1.88;;;;;;;23.75;100.00;101543.63;5055178;28;20134;-57
2023/07/13 08:19:46;;;;;;;6.65;2.25;;;;;;;22.73;100.00;101477.88;5055318;28;20044;-49
2023/07/13 08:22:11;;;;;;;7.97;2.65;;;;;;;22.34;100.00;101494.97;5037108;28;20041;-50
2023/07/13 08:24:36;;;;;;;6.20;2.20;;;;;;;22.49;100.00;101536.81;5054861;28;20039;-49
2023/07/13 08:27:02;;;;;;;7.95;2.53;;;;;;;22.90;100.00;101540.09;5055014;28;20040;-55
2023/07/13 08:29:28;;;;;;;5.13;2.03;;;;;;;23.45;100.00;101485.84;5054580;28;20055;-50
2023/07/13 08:31:54;;;;;;;4.50;2.38;;;;;;;24.18;100.00;101473.94;5054644;28;20098;-49
2023/07/13 08:34:19;;;;;;;7.90;2.60;;;;;;;24.66;100.00;101556.19;5054674;28;20036;-50
2023/07/13 08:36:44;;;;;;;7.97;2.55;;;;;;;24.60;100.00;101546.75;5054599;28;20072;-50
2023/07/13 08:39:10;;;;;;;8.90;2.28;;;;;;;24.35;100.00;101551.50;5053871;28;20056;-52
2023/07/13 08:41:35;;;;;;;7.82;2.95;;;;;;;24.19;100.00;101557.22;5054561;28;20048;-56
2023/07/13 08:44:02;;;;;;;8.68;2.83;;;;;;;23.88;100.00;101514.81;5036759;28;20037;-53
2023/07/13 08:46:36;;;;;;;6.95;2.20;;;;;;;23.95;100.00;101487.34;5037017;28;20032;-52
2023/07/13 08:49:04;;;;;;;5.10;2.00;;;;;;;24.68;100.00;101532.66;5036508;28;20377;-53
2023/07/13 08:51:43;;;;;;;5.88;2.05;;;;;;;24.97;100.00;101514.19;5036752;28;20033;-51
2023/07/13 08:54:35;;;;;;;9.77;2.55;;;;;;;25.24;100.00;101546.09;5036318;28;20040;-54
2023/07/13 08:57:11;;;;;;;6.10;2.38;;;;;;;25.88;100.00;101555.03;5049953;28;20124;-50
2023/07/13 08:59:36;;;;;;;6.68;2.38;;;;;;;25.99;100.00;101547.75;5053327;28;20076;-55
2023/07/13 09:02:21;;;;;;;6.07;2.60;;;;;;;26.23;100.00;101550.22;5054321;28;20488;-50
2023/07/13 09:05:12;;;;;;;5.32;2.40;;;;;;;25.47;100.00;101551.28;5036440;28;20116;-50
2023/07/13 09:08:08;;;;;;;4.07;2.03;;;;;;;23.94;100.00;101493.69;5031486;28;20052;-49
2023/07/13 09:10:44;;;;;;;6.90;2.55;;;;;;;23.64;100.00;101532.84;5036255;28;20400;-52
2023/07/13 09:13:28;;;;;;;6.07;2.10;;;;;;;23.20;100.00;101545.06;5036225;28;20021;-54
2023/07/13 09:15:54;;;;;;;4.63;1.90;;;;;;;22.71;100.00;101474.44;5054029;28;20147;-52
2023/07/13 09:18:26;;;;;;;5.88;2.03;;;;;;;22.67;100.00;101430.03;5054079;28;20029;-51
2023/07/13 09:20:56;;;;;;;7.55;2.50;;;;;;;24.25;100.00;101562.13;5054003;28;20056;-54
2023/07/13 09:23:23;;;;;;;6.55;2.42;;;;;;;25.00;100.00;101552.50;5036159;28;20051;-54
2023/07/13 09:25:56;;;;;;;7.55;2.35;;;;;;;24.97;100.00;101582.38;5053637;28;20037;-53
2023/07/13 09:28:27;;;;;;;7.72;2.05;;;;;;;24.47;100.00;101510.16;5053955;28;20079;-56
2023/07/13 09:31:01;;;;;;;5.07;2.20;;;;;;;25.08;100.00;101565.34;5053989;28;20040;-56
2023/07/13 09:33:29;;;;;;;4.65;1.90;;;;;;;25.04;100.00;101559.31;5036076;28;20036;-54
2023/07/13 09:35:57;;;;;;;6.22;2.65;;;;;;;25.42;100.00;101563.44;5052565;28;20072;-52
2023/07/13 09:38:25;;;;;;;5.03;3.05;;;;;;;25.36;100.00;101512.72;5053510;28;20033;-53
2023/07/13 09:41:10;;;;;;;4.80;2.33;;;;;;;24.88;100.00;101575.03;5036010;28;20380;-49
2023/07/13 09:43:36;;;;;;;5.68;2.10;;;;;;;24.29;100.00;101568.09;5053522;28;20480;-57
2023/07/13 09:46:01;;;;;;;5.35;1.95;;;;;;;23.80;100.00;101571.00;5053560;28;20041;-54
2023/07/13 09:48:34;;;;;;;9.60;2.72;;;;;;;24.09;100.00;101572.31;5053453;28;20373;-52
2023/07/13 09:51:07;;;;;;;8.73;2.53;;;;;;;23.87;100.00;101513.97;5052378;28;20029;-56
2023/07/13 09:53:32;;;;;;;5.78;2.03;;;;;;;24.21;100.00;101587.56;5052305;28;20040;-54
2023/07/13 09:55:59;;;;;;;6.47;2.20;;;;;;;24.60;100.00;101581.75;5053141;28;20045;-56
2023/07/13 09:58:27;;;;;;;5.65;2.58;;;;;;;24.82;100.00;101580.91;5053304;28;20037;-49
2023/07/13 10:00:56;;;;;;;6.57;2.08;;;;;;;25.88;100.00;101588.28;5035501;28;20032;-50
2023/07/13 10:03:32;;;;;;;8.68;2.63;;;;;;;26.53;100.00;101604.22;5052921;28;20037;-55
2023/07/13 10:06:09;;;;;;;5.68;2.50;;;;;;;26.52;100.00;101601.66;5053188;28;20037;-53
2023/07/13 10:08:35;;;;;;;4.25;2.03;;;;;;;25.85;100.00;101590.38;5053094;28;20032;-56
2023/07/13 10:11:09;;;;;;;10.70;2.60;;;;;;;25.27;100.00;101610.50;5053081;28;20040;-54
2023/07/13 10:13:37;;;;;;;7.82;2.70;;;;;;;24.33;100.00;101586.59;5053033;28;20040;-52
2023/07/13 10:16:05;;;;;;;7.15;2.60;;;;;;;24.34;100.00;101576.72;5034923;28;20032;-50
2023/07/13 10:18:43;;;;;;;5.05;2.65;;;;;;;25.36;100.00;101545.94;5035378;28;20490;-56
2023/07/13 10:21:20;;;;;;;5.05;2.80;;;;;;;26.76;100.00;101615.72;5052783;28;20029;-56
2023/07/13 10:23:55;;;;;;;5.72;2.83;;;;;;;27.48;100.00;101593.94;5034885;28;20491;-55
2023/07/13 10:26:30;;;;;;;7.05;2.50;;;;;;;27.43;100.00;101621.41;5052678;28;20042;-52
2023/07/13 10:28:57;;;;;;;5.35;2.08;;;;;;;26.73;100.00;101581.75;5034954;28;20029;-56
2023/07/13 10:31:23;;;;;;;7.18;2.80;;;;;;;27.18;100.00;101622.72;5034751;28;20040;-54
2023/07/13 10:33:49;;;;;;;6.40;2.53;;;;;;;26.30;100.00;101524.38;5034819;28;20025;-51
2023/07/13 10:36:20;;;;;;;4.82;2.20;;;;;;;26.71;100.00;101566.63;5052370;28;20037;-52
2023/07/13 10:38:47;;;;;;;5.03;2.05;;;;;;;26.08;100.00;101638.69;5034461;28;20078;-50
2023/07/13 10:41:15;;;;;;;6.10;2.13;;;;;;;25.51;100.00;101568.91;5051383;28;20476;-54
2023/07/13 10:43:49;;;;;;;4.47;2.13;;;;;;;25.85;100.00;101587.66;5034576;28;20021;-52
2023/07/13 10:46:16;;;;;;;4.40;2.00;;;;;;;25.85;100.00;101585.84;5052433;28;20051;-53
2023/07/13 10:48:43;;;;;;;4.93;2.47;;;;;;;26.40;100.00;101584.69;5052500;28;20040;-54
2023/07/13 10:51:10;;;;;;;3.05;1.75;;;;;;;26.66;100.00;101639.09;5034595;28;20040;-56
2023/07/13 10:53:39;;;;;;;3.60;1.90;;;;;;;27.36;100.00;101594.03;5034689;28;20025;-55
2023/07/13 10:56:12;;;;;;;5.63;2.55;;;;;;;28.27;100.00;101652.38;5052521;28;20049;-48
2023/07/13 10:58:37;;;;;;;3.50;2.30;;;;;;;28.14;100.00;101563.34;5052453;28;20119;-50
2023/07/13 11:01:05;;;;;;;5.50;2.58;;;;;;;28.59;100.00;101663.75;5051752;28;20484;-49
2023/07/13 11:03:33;;;;;;;7.40;2.90;;;;;;;28.71;100.00;101670.72;5051978;28;20056;-58
2023/07/13 11:06:09;;;;;;;8.25;2.30;;;;;;;27.86;100.00;101664.31;5052136;28;20033;-53
2023/07/13 11:08:38;;;;;;;6.55;2.30;;;;;;;26.91;100.00;101602.75;5034510;28;20025;-51
2023/07/13 11:11:23;;;;;;;11.00;2.72;;;;;;;27.71;100.00;101665.72;5052214;28;20507;-54
2023/07/13 11:13:49;;;;;;;6.82;2.60;;;;;;;28.18;100.00;101670.34;5052154;28;20063;-53